createdAt,value
2018-09-05T00:00:37.065Z,0.00
2018-09-05T00:01:37.064Z,0.00
2018-09-05T00:02:37.063Z,0.00
2018-09-05T00:03:37.063Z,0.00
2018-09-05T00:04:37.063Z,0.00
2018-09-05T00:05:37.059Z,0.00
2018-09-05T00:06:37.058Z,0.00
2018-09-05T00:07:37.060Z,0.00
2018-09-05T00:08:37.058Z,0.00
2018-09-05T00:09:37.059Z,0.00
2018-09-05T00:10:37.063Z,0.00
2018-09-05T00:11:37.057Z,0.00
2018-09-05T00:12:37.057Z,0.00
2018-09-05T00:13:37.054Z,0.00
2018-09-05T00:14:37.054Z,0.00
2018-09-05T00:15:37.054Z,0.00
2018-09-05T00:16:37.051Z,0.00
2018-09-05T00:17:37.055Z,0.00
2018-09-05T00:18:37.051Z,0.00
2018-09-05T00:19:37.051Z,0.00
2018-09-05T00:20:37.050Z,0.00
2018-09-05T00:21:37.048Z,0.00
2018-09-05T00:22:37.049Z,0.00
2018-09-05T00:23:37.048Z,0.00
2018-09-05T00:24:37.047Z,0.00
2018-09-05T00:25:37.045Z,0.00
2018-09-05T00:26:37.041Z,0.00
2018-09-05T00:27:37.047Z,0.00
2018-09-05T00:28:37.045Z,0.00
2018-09-05T00:29:37.042Z,0.00
2018-09-05T00:30:37.040Z,0.00
2018-09-05T00:31:37.042Z,0.00
2018-09-05T00:32:37.038Z,0.00
2018-09-05T00:33:37.038Z,0.00
2018-09-05T00:34:37.038Z,0.00
2018-09-05T00:35:37.034Z,0.00
2018-09-05T00:36:37.037Z,0.00
2018-09-05T00:37:37.037Z,0.00
2018-09-05T00:38:37.037Z,0.00
2018-09-05T00:39:37.039Z,0.00
2018-09-05T00:40:37.031Z,0.00
2018-09-05T00:41:37.035Z,0.00
2018-09-05T00:42:37.029Z,0.00
2018-09-05T00:43:37.028Z,0.00
2018-09-05T00:44:37.028Z,0.00
2018-09-05T00:45:37.026Z,0.00
2018-09-05T00:46:37.029Z,0.00
2018-09-05T00:47:37.024Z,0.00
2018-09-05T00:48:37.025Z,0.00
2018-09-05T00:49:37.022Z,0.00
2018-09-05T00:50:37.022Z,0.00
2018-09-05T00:51:37.022Z,0.00
2018-09-05T00:52:37.021Z,0.00
2018-09-05T00:53:37.018Z,0.00
2018-09-05T00:54:37.016Z,0.00
2018-09-05T00:55:37.017Z,0.00
2018-09-05T00:56:37.017Z,0.00
2018-09-05T00:57:37.014Z,0.00
2018-09-05T00:58:37.020Z,0.00
2018-09-05T00:59:37.016Z,0.00
2018-09-05T01:00:37.013Z,0.00
2018-09-05T01:01:37.009Z,0.00
2018-09-05T01:02:37.009Z,0.00
2018-09-05T01:03:37.008Z,0.00
2018-09-05T01:04:37.007Z,0.00
2018-09-05T01:05:37.012Z,0.00
2018-09-05T01:06:37.005Z,0.00
2018-09-05T01:07:37.004Z,0.00
2018-09-05T01:08:37.002Z,0.00
2018-09-05T01:09:37.006Z,0.00
2018-09-05T01:10:37.000Z,0.00
2018-09-05T01:11:37.005Z,0.00
2018-09-05T01:12:37.000Z,0.00
2018-09-05T01:13:36.999Z,0.00
2018-09-05T01:14:36.998Z,0.00
2018-09-05T01:15:36.999Z,0.00
2018-09-05T01:16:36.998Z,0.00
2018-09-05T01:17:36.994Z,0.00
2018-09-05T01:18:36.992Z,0.00
2018-09-05T01:19:36.992Z,0.00
2018-09-05T01:20:36.990Z,0.00
2018-09-05T01:21:36.990Z,0.00
2018-09-05T01:22:36.986Z,0.00
2018-09-05T01:23:36.989Z,0.00
2018-09-05T01:24:36.983Z,0.00
2018-09-05T01:25:36.985Z,0.00
2018-09-05T01:26:36.986Z,0.00
2018-09-05T01:27:36.988Z,0.00
2018-09-05T01:28:36.984Z,0.00
2018-09-05T01:29:36.984Z,0.00
2018-09-05T01:30:36.981Z,0.00
2018-09-05T01:31:36.981Z,0.00
2018-09-05T01:32:36.980Z,0.00
2018-09-05T01:33:36.976Z,0.00
2018-09-05T01:34:36.976Z,0.00
2018-09-05T01:35:36.975Z,0.00
2018-09-05T01:36:36.974Z,0.00
2018-09-05T01:37:36.972Z,0.00
2018-09-05T01:38:36.972Z,0.00
2018-09-05T01:39:36.971Z,0.00
2018-09-05T01:40:36.973Z,0.00
2018-09-05T01:41:36.967Z,0.00
2018-09-05T01:42:36.966Z,0.00
2018-09-05T01:43:36.964Z,0.00
2018-09-05T01:44:36.967Z,0.00
2018-09-05T01:45:36.965Z,0.00
2018-09-05T01:46:36.967Z,0.00
2018-09-05T01:47:36.962Z,0.00
2018-09-05T01:48:36.961Z,0.00
2018-09-05T01:49:36.959Z,0.00
2018-09-05T01:50:36.963Z,0.00
2018-09-05T01:51:36.962Z,0.00
2018-09-05T01:52:36.958Z,0.00
2018-09-05T01:53:36.956Z,0.00
2018-09-05T01:54:36.958Z,0.00
2018-09-05T01:55:36.954Z,0.00
2018-09-05T01:56:36.954Z,0.00
2018-09-05T01:57:36.950Z,0.00
2018-09-05T01:58:36.952Z,0.00
2018-09-05T01:59:36.947Z,0.00
2018-09-05T02:00:36.945Z,0.00
2018-09-05T02:01:36.949Z,0.00
2018-09-05T02:02:36.959Z,0.00
2018-09-05T02:03:36.943Z,0.00
2018-09-05T02:04:36.948Z,0.00
2018-09-05T02:05:36.941Z,0.00
2018-09-05T02:06:36.941Z,0.00
2018-09-05T02:07:36.948Z,0.00
2018-09-05T02:08:37.053Z,0.00
2018-09-05T02:09:36.940Z,0.00
2018-09-05T02:10:36.940Z,0.00
2018-09-05T02:11:36.928Z,0.00
2018-09-05T02:12:36.936Z,0.00
2018-09-05T02:13:36.933Z,0.00
2018-09-05T02:14:36.924Z,0.00
2018-09-05T02:15:36.925Z,0.00
2018-09-05T02:16:36.925Z,0.00
2018-09-05T02:17:36.923Z,0.00
2018-09-05T02:18:36.920Z,0.00
2018-09-05T02:19:36.921Z,0.00
2018-09-05T02:20:36.923Z,0.00
2018-09-05T02:21:36.920Z,0.00
2018-09-05T02:22:36.918Z,0.00
2018-09-05T02:23:36.916Z,0.00
2018-09-05T02:24:36.923Z,0.00
2018-09-05T02:25:36.911Z,0.00
2018-09-05T02:26:36.911Z,0.00
2018-09-05T02:27:36.914Z,0.00
2018-09-05T02:28:36.912Z,0.00
2018-09-05T02:29:36.908Z,0.00
2018-09-05T02:30:36.907Z,0.00
2018-09-05T02:31:36.909Z,0.00
2018-09-05T02:32:36.905Z,0.00
2018-09-05T02:33:36.906Z,0.00
2018-09-05T02:34:36.900Z,0.00
2018-09-05T02:35:36.902Z,0.00
2018-09-05T02:36:36.904Z,0.00
2018-09-05T02:37:36.898Z,0.00
2018-09-05T02:38:36.897Z,0.00
2018-09-05T02:39:36.896Z,0.00
2018-09-05T02:40:36.927Z,0.00
2018-09-05T02:41:36.892Z,0.00
2018-09-05T02:42:36.893Z,0.00
2018-09-05T02:43:36.896Z,0.00
2018-09-05T02:44:36.892Z,0.00
2018-09-05T02:45:36.891Z,0.00
2018-09-05T02:46:36.893Z,0.00
2018-09-05T02:47:36.890Z,0.00
2018-09-05T02:48:36.887Z,0.00
2018-09-05T02:49:36.886Z,0.00
2018-09-05T02:50:36.887Z,0.00
2018-09-05T02:51:36.880Z,0.00
2018-09-05T02:52:36.883Z,0.00
2018-09-05T02:53:36.880Z,0.00
2018-09-05T02:54:36.884Z,0.00
2018-09-05T02:55:36.879Z,0.00
2018-09-05T02:56:36.880Z,0.00
2018-09-05T02:57:36.876Z,0.00
2018-09-05T02:58:36.873Z,0.00
2018-09-05T02:59:36.876Z,0.00
2018-09-05T03:00:36.873Z,0.00
2018-09-05T03:01:36.873Z,0.00
2018-09-05T03:02:36.872Z,0.00
2018-09-05T03:03:36.878Z,0.00
2018-09-05T03:04:36.872Z,0.00
2018-09-05T03:05:36.866Z,0.00
2018-09-05T03:06:36.870Z,0.00
2018-09-05T03:07:36.864Z,0.00
2018-09-05T03:08:36.866Z,0.00
2018-09-05T03:09:36.869Z,0.00
2018-09-05T03:10:36.862Z,0.00
2018-09-05T03:11:36.867Z,0.00
2018-09-05T03:12:36.864Z,0.00
2018-09-05T03:13:36.859Z,0.00
2018-09-05T03:14:36.858Z,0.00
2018-09-05T03:15:36.858Z,0.00
2018-09-05T03:16:36.859Z,0.00
2018-09-05T03:17:36.850Z,0.00
2018-09-05T03:18:36.853Z,0.00
2018-09-05T03:19:36.854Z,0.00
2018-09-05T03:20:36.853Z,0.00
2018-09-05T03:21:36.854Z,0.00
2018-09-05T03:22:36.857Z,0.00
2018-09-05T03:23:36.926Z,0.00
2018-09-05T03:24:36.849Z,0.00
2018-09-05T03:25:36.847Z,0.00
2018-09-05T03:26:36.847Z,0.00
2018-09-05T03:27:36.846Z,0.00
2018-09-05T03:28:36.845Z,0.00
2018-09-05T03:29:36.848Z,0.00
2018-09-05T03:30:36.848Z,0.00
2018-09-05T03:31:36.839Z,0.00
2018-09-05T03:32:36.898Z,0.00
2018-09-05T03:33:36.838Z,0.00
2018-09-05T03:34:36.840Z,0.00
2018-09-05T03:35:36.836Z,0.00
2018-09-05T03:36:36.835Z,0.00
2018-09-05T03:37:36.831Z,0.00
2018-09-05T03:38:36.833Z,0.00
2018-09-05T03:39:36.832Z,0.00
2018-09-05T03:40:36.831Z,0.00
2018-09-05T03:41:36.829Z,0.00
2018-09-05T03:42:36.832Z,0.00
2018-09-05T03:43:36.835Z,0.00
2018-09-05T03:44:36.827Z,0.00
2018-09-05T03:45:36.823Z,0.00
2018-09-05T03:46:36.825Z,0.00
2018-09-05T03:47:36.823Z,0.00
2018-09-05T03:48:36.830Z,0.00
2018-09-05T03:49:36.864Z,0.00
2018-09-05T03:50:36.823Z,0.00
2018-09-05T03:51:36.819Z,0.00
2018-09-05T03:52:36.823Z,0.00
2018-09-05T03:53:36.819Z,0.00
2018-09-05T03:54:36.818Z,0.00
2018-09-05T03:55:36.823Z,0.00
2018-09-05T03:56:36.815Z,0.00
2018-09-05T03:57:36.816Z,4.00
2018-09-05T03:58:36.812Z,4.00
2018-09-05T03:59:36.810Z,0.00
2018-09-05T04:00:36.810Z,4.00
2018-09-05T04:01:36.807Z,4.00
2018-09-05T04:02:36.808Z,4.00
2018-09-05T04:03:36.804Z,8.00
2018-09-05T04:04:36.808Z,4.00
2018-09-05T04:05:36.805Z,8.00
2018-09-05T04:06:36.804Z,8.00
2018-09-05T04:07:36.803Z,12.00
2018-09-05T04:08:36.804Z,12.00
2018-09-05T04:09:36.811Z,12.00
2018-09-05T04:10:36.797Z,16.00
2018-09-05T04:11:36.800Z,16.00
2018-09-05T04:12:36.798Z,16.00
2018-09-05T04:13:36.796Z,20.00
2018-09-05T04:14:36.794Z,24.00
2018-09-05T04:15:36.798Z,28.00
2018-09-05T04:16:36.794Z,32.00
2018-09-05T04:17:36.795Z,36.00
2018-09-05T04:18:36.794Z,44.00
2018-09-05T04:19:36.791Z,44.00
2018-09-05T04:20:36.790Z,56.00
2018-09-05T04:21:36.787Z,60.00
2018-09-05T04:22:36.791Z,64.00
2018-09-05T04:23:36.787Z,72.00
2018-09-05T04:24:36.783Z,76.00
2018-09-05T04:25:36.786Z,100.00
2018-09-05T04:26:36.800Z,108.00
2018-09-05T04:27:36.780Z,112.00
2018-09-05T04:28:36.786Z,120.00
2018-09-05T04:29:36.845Z,152.00
2018-09-05T04:30:36.781Z,148.00
2018-09-05T04:31:36.780Z,144.00
2018-09-05T04:32:36.778Z,152.00
2018-09-05T04:33:36.776Z,160.00
2018-09-05T04:34:36.776Z,176.00
2018-09-05T04:35:36.776Z,184.00
2018-09-05T04:36:36.783Z,180.00
2018-09-05T04:37:36.769Z,200.00
2018-09-05T04:38:36.772Z,200.00
2018-09-05T04:39:36.771Z,232.00
2018-09-05T04:40:36.771Z,240.00
2018-09-05T04:41:36.768Z,252.00
2018-09-05T04:42:36.769Z,260.00
2018-09-05T04:43:36.769Z,280.00
2018-09-05T04:44:36.767Z,288.00
2018-09-05T04:45:36.774Z,292.00
2018-09-05T04:46:36.763Z,324.00
2018-09-05T04:47:36.768Z,340.00
2018-09-05T04:48:36.764Z,348.00
2018-09-05T04:49:36.769Z,348.00
2018-09-05T04:50:36.761Z,376.00
2018-09-05T04:51:36.759Z,392.00
2018-09-05T04:52:36.789Z,436.00
2018-09-05T04:53:36.759Z,424.00
2018-09-05T04:54:36.761Z,436.00
2018-09-05T04:55:36.764Z,480.00
2018-09-05T04:56:36.755Z,512.00
2018-09-05T04:57:36.754Z,592.00
2018-09-05T04:58:36.752Z,644.00
2018-09-05T04:59:36.752Z,676.00
2018-09-05T05:00:36.752Z,680.00
2018-09-05T05:01:36.753Z,708.00
2018-09-05T05:02:36.749Z,696.00
2018-09-05T05:03:36.748Z,836.00
2018-09-05T05:04:36.803Z,860.00
2018-09-05T05:05:36.769Z,884.00
2018-09-05T05:06:36.743Z,924.00
2018-09-05T05:07:36.745Z,1012.00
2018-09-05T05:08:36.752Z,1116.00
2018-09-05T05:09:36.757Z,1232.00
2018-09-05T05:10:36.747Z,1288.00
2018-09-05T05:11:36.745Z,1380.00
2018-09-05T05:12:36.781Z,1404.00
2018-09-05T05:13:36.740Z,1420.00
2018-09-05T05:14:36.740Z,1624.00
2018-09-05T05:15:36.740Z,1616.00
2018-09-05T05:16:36.734Z,1656.00
2018-09-05T05:17:36.731Z,1800.00
2018-09-05T05:18:36.733Z,1744.00
2018-09-05T05:19:36.738Z,1640.00
2018-09-05T05:20:36.736Z,1604.00
2018-09-05T05:21:36.729Z,1600.00
2018-09-05T05:22:36.735Z,1708.00
2018-09-05T05:23:36.812Z,1576.00
2018-09-05T05:24:36.733Z,1592.00
2018-09-05T05:25:36.731Z,1724.00
2018-09-05T05:26:36.731Z,1820.00
2018-09-05T05:27:36.731Z,1764.00
2018-09-05T05:28:36.733Z,1772.00
2018-09-05T05:29:36.733Z,1868.00
2018-09-05T05:30:36.737Z,1932.00
2018-09-05T05:31:36.729Z,2032.00
2018-09-05T05:32:36.832Z,2016.00
2018-09-05T05:33:36.728Z,2032.00
2018-09-05T05:34:36.727Z,1916.00
2018-09-05T05:35:36.730Z,1848.00
2018-09-05T05:36:36.748Z,1964.00
2018-09-05T05:37:36.727Z,2084.00
2018-09-05T05:38:36.727Z,2176.00
2018-09-05T05:39:36.725Z,2164.00
2018-09-05T05:40:36.728Z,2328.00
2018-09-05T05:41:36.792Z,2480.00
2018-09-05T05:42:36.728Z,2332.00
2018-09-05T05:43:36.728Z,2236.00
2018-09-05T05:44:36.726Z,1972.00
2018-09-05T05:45:36.723Z,2152.00
2018-09-05T05:46:36.766Z,2100.00
2018-09-05T05:47:36.722Z,2356.00
2018-09-05T05:48:36.725Z,2444.00
2018-09-05T05:49:36.720Z,2140.00
2018-09-05T05:50:36.722Z,2396.00
2018-09-05T05:51:36.778Z,2332.00
2018-09-05T05:52:36.722Z,2324.00
2018-09-05T05:53:36.720Z,2728.00
2018-09-05T05:54:36.723Z,2092.00
2018-09-05T05:55:36.722Z,1940.00
2018-09-05T05:56:36.721Z,1936.00
2018-09-05T05:57:36.719Z,2120.00
2018-09-05T05:58:36.718Z,2076.00
2018-09-05T05:59:36.719Z,2488.00
2018-09-05T06:00:36.723Z,2488.00
2018-09-05T06:01:36.716Z,2960.00
2018-09-05T06:02:36.717Z,2868.00
2018-09-05T06:03:36.719Z,2728.00
2018-09-05T06:04:36.718Z,3516.00
2018-09-05T06:05:36.714Z,3672.00
2018-09-05T06:06:36.717Z,3464.00
2018-09-05T06:07:36.717Z,3544.00
2018-09-05T06:08:36.716Z,3524.00
2018-09-05T06:09:36.717Z,3584.00
2018-09-05T06:10:36.728Z,3288.00
2018-09-05T06:11:36.714Z,3408.00
2018-09-05T06:12:36.719Z,3660.00
2018-09-05T06:13:36.720Z,3960.00
2018-09-05T06:14:36.713Z,4076.00
2018-09-05T06:15:36.721Z,4164.00
2018-09-05T06:16:36.714Z,4104.00
2018-09-05T06:17:36.771Z,3832.00
2018-09-05T06:18:36.713Z,3936.00
2018-09-05T06:19:36.713Z,4216.00
2018-09-05T06:20:36.713Z,3720.00
2018-09-05T06:21:36.713Z,3948.00
2018-09-05T06:22:36.711Z,4476.00
2018-09-05T06:23:36.712Z,5036.00
2018-09-05T06:24:36.715Z,3928.00
2018-09-05T06:25:36.711Z,3568.00
2018-09-05T06:26:36.712Z,3624.00
2018-09-05T06:27:36.715Z,3876.00
2018-09-05T06:28:36.716Z,4788.00
2018-09-05T06:29:36.710Z,4084.00
2018-09-05T06:30:36.919Z,3908.00
2018-09-05T06:31:36.709Z,4272.00
2018-09-05T06:32:36.710Z,3724.00
2018-09-05T06:33:36.710Z,3824.00
2018-09-05T06:34:36.708Z,3856.00
2018-09-05T06:35:36.741Z,4164.00
2018-09-05T06:36:36.715Z,4592.00
2018-09-05T06:37:36.709Z,5476.00
2018-09-05T06:38:36.709Z,5496.00
2018-09-05T06:39:36.714Z,5052.00
2018-09-05T06:40:36.709Z,4756.00
2018-09-05T06:41:36.709Z,4988.00
2018-09-05T06:42:36.708Z,5764.00
2018-09-05T06:43:36.711Z,6912.00
2018-09-05T06:44:36.712Z,7008.00
2018-09-05T06:45:36.708Z,7680.00
2018-09-05T06:46:36.708Z,7796.00
2018-09-05T06:47:36.709Z,7240.00
2018-09-05T06:48:36.709Z,6908.00
2018-09-05T06:49:36.707Z,6988.00
2018-09-05T06:50:36.708Z,6136.00
2018-09-05T06:51:36.709Z,5828.00
2018-09-05T06:52:36.712Z,5616.00
2018-09-05T06:53:36.706Z,5524.00
2018-09-05T06:54:36.710Z,5884.00
2018-09-05T06:55:36.710Z,6232.00
2018-09-05T06:56:36.709Z,7604.00
2018-09-05T06:57:36.709Z,9348.00
2018-09-05T06:58:36.715Z,11800.00
2018-09-05T06:59:36.717Z,12160.00
2018-09-05T07:00:36.707Z,12192.00
2018-09-05T07:01:36.707Z,14448.00
2018-09-05T07:02:36.709Z,24768.00
2018-09-05T07:03:36.775Z,22272.00
2018-09-05T07:04:36.712Z,27808.00
2018-09-05T07:05:36.711Z,16736.00
2018-09-05T07:06:36.770Z,24544.00
2018-09-05T07:07:36.716Z,23488.00
2018-09-05T07:08:36.715Z,15456.00
2018-09-05T07:09:36.713Z,11984.00
2018-09-05T07:10:36.716Z,7884.00
2018-09-05T07:11:36.718Z,9628.00
2018-09-05T07:12:36.727Z,10800.00
2018-09-05T07:13:36.720Z,7556.00
2018-09-05T07:14:36.779Z,7296.00
2018-09-05T07:15:36.726Z,8152.00
2018-09-05T07:16:36.727Z,8764.00
2018-09-05T07:17:36.746Z,10368.00
2018-09-05T07:18:36.727Z,12920.00
2018-09-05T07:19:36.728Z,11228.00
2018-09-05T07:20:36.731Z,14824.00
2018-09-05T07:21:36.824Z,12484.00
2018-09-05T07:22:36.733Z,15168.00
2018-09-05T07:23:36.733Z,14008.00
2018-09-05T07:24:36.735Z,15044.00
2018-09-05T07:25:36.742Z,11244.00
2018-09-05T07:26:36.739Z,9732.00
2018-09-05T07:27:36.827Z,11756.00
2018-09-05T07:28:36.743Z,13712.00
2018-09-05T07:29:36.744Z,12248.00
2018-09-05T07:30:36.755Z,12372.00
2018-09-05T07:31:36.753Z,12476.00
2018-09-05T07:32:36.745Z,12176.00
2018-09-05T07:33:36.756Z,14564.00
2018-09-05T07:34:36.751Z,14812.00
2018-09-05T07:35:36.789Z,17024.00
2018-09-05T07:36:36.758Z,12936.00
2018-09-05T07:37:36.758Z,12300.00
2018-09-05T07:38:36.756Z,11980.00
2018-09-05T07:39:36.758Z,11864.00
2018-09-05T07:40:36.759Z,11924.00
2018-09-05T07:41:36.768Z,11912.00
2018-09-05T07:42:36.762Z,12244.00
2018-09-05T07:43:36.769Z,12500.00
2018-09-05T07:44:36.766Z,12984.00
2018-09-05T07:45:36.766Z,12580.00
2018-09-05T07:46:36.787Z,12192.00
2018-09-05T07:47:36.771Z,12396.00
2018-09-05T07:48:36.774Z,12040.00
2018-09-05T07:49:36.774Z,12128.00
2018-09-05T07:50:36.813Z,11800.00
2018-09-05T07:51:36.783Z,11800.00
2018-09-05T07:52:36.779Z,12408.00
2018-09-05T07:53:36.782Z,12840.00
2018-09-05T07:54:36.784Z,12044.00
2018-09-05T07:55:36.784Z,11624.00
2018-09-05T07:56:36.786Z,11824.00
2018-09-05T07:57:36.797Z,10916.00
2018-09-05T07:58:36.798Z,10968.00
2018-09-05T07:59:36.790Z,11344.00
2018-09-05T08:00:36.790Z,10768.00
2018-09-05T08:01:36.795Z,10452.00
2018-09-05T08:02:36.797Z,9820.00
2018-09-05T08:03:36.799Z,9748.00
2018-09-05T08:04:36.801Z,9320.00
2018-09-05T08:05:36.803Z,9708.00
2018-09-05T08:06:36.803Z,10660.00
2018-09-05T08:07:36.808Z,10696.00
2018-09-05T08:08:36.806Z,10716.00
2018-09-05T08:09:36.810Z,10100.00
2018-09-05T08:10:36.812Z,10340.00
2018-09-05T08:11:36.829Z,10840.00
2018-09-05T08:12:36.819Z,10688.00
2018-09-05T08:13:36.818Z,11416.00
2018-09-05T08:14:36.823Z,11392.00
2018-09-05T08:15:36.822Z,11344.00
2018-09-05T08:16:36.826Z,11236.00
2018-09-05T08:17:36.829Z,10696.00
2018-09-05T08:18:36.830Z,10184.00
2018-09-05T08:19:36.833Z,10292.00
2018-09-05T08:20:36.834Z,10764.00
2018-09-05T08:21:36.833Z,10784.00
2018-09-05T08:22:36.835Z,11028.00
2018-09-05T08:23:36.844Z,11052.00
2018-09-05T08:24:36.870Z,10868.00
2018-09-05T08:25:36.848Z,10760.00
2018-09-05T08:26:36.848Z,10348.00
2018-09-05T08:27:36.850Z,9748.00
2018-09-05T08:28:36.849Z,9100.00
2018-09-05T08:29:36.935Z,8952.00
2018-09-05T08:30:36.854Z,7892.00
2018-09-05T08:31:36.856Z,7824.00
2018-09-05T08:32:36.859Z,7524.00
2018-09-05T08:33:36.861Z,6376.00
2018-09-05T08:34:36.899Z,6236.00
2018-09-05T08:35:37.203Z,6268.00
2018-09-05T08:36:37.006Z,6384.00
2018-09-05T08:37:37.029Z,6472.00
2018-09-05T08:38:36.943Z,6160.00
2018-09-05T08:39:36.869Z,5860.00
2018-09-05T08:40:36.877Z,5648.00
2018-09-05T08:41:36.889Z,5500.00
2018-09-05T08:42:36.885Z,5356.00
2018-09-05T08:43:36.913Z,5272.00
2018-09-05T08:44:36.901Z,5208.00
2018-09-05T08:45:36.998Z,5144.00
2018-09-05T08:46:36.881Z,5096.00
2018-09-05T08:47:36.884Z,5092.00
2018-09-05T08:48:36.910Z,5108.00
2018-09-05T08:49:36.888Z,5128.00
2018-09-05T08:50:36.895Z,5180.00
2018-09-05T08:51:36.892Z,5152.00
2018-09-05T08:52:37.092Z,5156.00
2018-09-05T08:53:36.894Z,5128.00
2018-09-05T08:54:36.899Z,5168.00
2018-09-05T08:55:36.906Z,5240.00
2018-09-05T08:56:36.899Z,5300.00
2018-09-05T08:57:36.903Z,5284.00
2018-09-05T08:58:36.909Z,5228.00
2018-09-05T08:59:36.909Z,5228.00
2018-09-05T09:00:36.906Z,5232.00
2018-09-05T09:01:36.910Z,5180.00
2018-09-05T09:02:36.904Z,5140.00
2018-09-05T09:03:36.906Z,5184.00
2018-09-05T09:04:37.080Z,5112.00
2018-09-05T09:05:36.915Z,5320.00
2018-09-05T09:06:36.916Z,5092.00
2018-09-05T09:07:36.919Z,5356.00
2018-09-05T09:08:36.973Z,5452.00
2018-09-05T09:09:36.923Z,6644.00
2018-09-05T09:10:36.924Z,6932.00
2018-09-05T09:11:36.968Z,7440.00
2018-09-05T09:12:37.286Z,7764.00
2018-09-05T09:13:36.927Z,8848.00
2018-09-05T09:14:37.006Z,8844.00
2018-09-05T09:15:36.932Z,7644.00
2018-09-05T09:16:36.934Z,7248.00
2018-09-05T09:17:36.933Z,7304.00
2018-09-05T09:18:36.943Z,7248.00
2018-09-05T09:19:36.941Z,6736.00
2018-09-05T09:20:36.941Z,6616.00
2018-09-05T09:21:37.172Z,6988.00
2018-09-05T09:22:36.948Z,6788.00
2018-09-05T09:23:36.947Z,6520.00
2018-09-05T09:24:36.952Z,6656.00
2018-09-05T09:25:36.946Z,6332.00
2018-09-05T09:26:36.954Z,5708.00
2018-09-05T09:27:37.008Z,4192.00
2018-09-05T09:28:36.960Z,4568.00
2018-09-05T09:29:37.001Z,4956.00
2018-09-05T09:30:37.082Z,5716.00
2018-09-05T09:31:36.963Z,5528.00
2018-09-05T09:32:36.966Z,5704.00
2018-09-05T09:33:36.968Z,5864.00
2018-09-05T09:34:36.971Z,5764.00
2018-09-05T09:35:36.975Z,5284.00
2018-09-05T09:36:36.977Z,5340.00
2018-09-05T09:37:37.277Z,5204.00
2018-09-05T09:38:36.979Z,5360.00
2018-09-05T09:39:36.984Z,5636.00
2018-09-05T09:40:36.986Z,6868.00
2018-09-05T09:41:36.990Z,8396.00
2018-09-05T09:42:37.273Z,9036.00
2018-09-05T09:43:36.985Z,8476.00
2018-09-05T09:44:36.999Z,8276.00
2018-09-05T09:45:37.034Z,7208.00
2018-09-05T09:46:37.115Z,7216.00
2018-09-05T09:47:36.999Z,6952.00
2018-09-05T09:48:37.002Z,6764.00
2018-09-05T09:49:37.151Z,6944.00
2018-09-05T09:50:37.008Z,7028.00
2018-09-05T09:51:37.009Z,7416.00
2018-09-05T09:52:37.044Z,7680.00
2018-09-05T09:53:37.021Z,7656.00
2018-09-05T09:54:37.015Z,7896.00
2018-09-05T09:55:37.026Z,7980.00
2018-09-05T09:56:37.092Z,8688.00
2018-09-05T09:57:37.023Z,8752.00
2018-09-05T09:58:37.025Z,8664.00
2018-09-05T09:59:37.107Z,8396.00
2018-09-05T10:00:37.030Z,7484.00
2018-09-05T10:01:37.036Z,7068.00
2018-09-05T10:02:37.039Z,6812.00
2018-09-05T10:03:37.144Z,7184.00
2018-09-05T10:04:37.056Z,8072.00
2018-09-05T10:05:37.043Z,8508.00
2018-09-05T10:06:37.047Z,8700.00
2018-09-05T10:07:37.050Z,9292.00
2018-09-05T10:08:37.056Z,9672.00
2018-09-05T10:09:37.100Z,9632.00
2018-09-05T10:10:37.111Z,9436.00
2018-09-05T10:11:37.058Z,9400.00
2018-09-05T10:12:37.060Z,9400.00
2018-09-05T10:13:37.064Z,9876.00
2018-09-05T10:14:37.069Z,10568.00
2018-09-05T10:15:37.070Z,10500.00
2018-09-05T10:16:37.074Z,10364.00
2018-09-05T10:17:37.076Z,9716.00
2018-09-05T10:18:37.082Z,9124.00
2018-09-05T10:19:37.086Z,8996.00
2018-09-05T10:20:37.088Z,8740.00
2018-09-05T10:21:37.093Z,7964.00
2018-09-05T10:22:37.105Z,6580.00
2018-09-05T10:23:37.097Z,5480.00
2018-09-05T10:24:37.100Z,4744.00
2018-09-05T10:25:37.104Z,4396.00
2018-09-05T10:26:37.114Z,4344.00
2018-09-05T10:27:37.110Z,4532.00
2018-09-05T10:28:37.118Z,4908.00
2018-09-05T10:29:37.120Z,4844.00
2018-09-05T10:30:37.116Z,4828.00
2018-09-05T10:31:37.154Z,4968.00
2018-09-05T10:32:37.127Z,5064.00
2018-09-05T10:33:37.127Z,5000.00
2018-09-05T10:34:37.131Z,4952.00
2018-09-05T10:35:37.136Z,5028.00
2018-09-05T10:36:37.145Z,5044.00
2018-09-05T10:37:38.692Z,4868.00
2018-09-05T10:38:37.145Z,4588.00
2018-09-05T10:39:37.146Z,4676.00
2018-09-05T10:40:37.149Z,4840.00
2018-09-05T10:41:37.152Z,5048.00
2018-09-05T10:42:37.155Z,5376.00
2018-09-05T10:43:37.158Z,5196.00
2018-09-05T10:44:37.160Z,5412.00
2018-09-05T10:45:37.162Z,5688.00
2018-09-05T10:46:37.165Z,6168.00
2018-09-05T10:47:37.171Z,6324.00
2018-09-05T10:48:37.173Z,6780.00
2018-09-05T10:49:37.174Z,7272.00
2018-09-05T10:50:37.178Z,7180.00
2018-09-05T10:51:37.184Z,6916.00
2018-09-05T10:52:37.187Z,6748.00
2018-09-05T10:53:37.188Z,6868.00
2018-09-05T10:54:37.191Z,6500.00
2018-09-05T10:55:37.194Z,6076.00
2018-09-05T10:56:37.198Z,6196.00
2018-09-05T10:57:37.351Z,6588.00
2018-09-05T10:58:37.202Z,6868.00
2018-09-05T10:59:37.211Z,7192.00
2018-09-05T11:00:37.210Z,7588.00
2018-09-05T11:01:37.215Z,8136.00
2018-09-05T11:02:37.217Z,8820.00
2018-09-05T11:03:37.219Z,8948.00
2018-09-05T11:04:37.225Z,8956.00
2018-09-05T11:05:37.225Z,9008.00
2018-09-05T11:06:37.230Z,8772.00
2018-09-05T11:07:37.229Z,8752.00
2018-09-05T11:08:37.236Z,8616.00
2018-09-05T11:09:37.246Z,7640.00
2018-09-05T11:10:37.255Z,7104.00
2018-09-05T11:11:37.245Z,6984.00
2018-09-05T11:12:37.249Z,7096.00
2018-09-05T11:13:37.252Z,7264.00
2018-09-05T11:14:37.258Z,7468.00
2018-09-05T11:15:37.263Z,7676.00
2018-09-05T11:16:37.265Z,7892.00
2018-09-05T11:17:37.267Z,8160.00
2018-09-05T11:18:37.270Z,8252.00
2018-09-05T11:19:37.277Z,8084.00
2018-09-05T11:21:37.714Z,8724.00
2018-09-05T11:22:37.330Z,8308.00
2018-09-05T11:23:37.502Z,8008.00
2018-09-05T11:24:37.297Z,7604.00
2018-09-05T11:25:37.302Z,7052.00
2018-09-05T11:26:37.301Z,6424.00
2018-09-05T11:27:37.347Z,6248.00
2018-09-05T11:28:37.306Z,5808.00
2018-09-05T11:29:37.309Z,5788.00
2018-09-05T11:30:37.321Z,5576.00
2018-09-05T11:31:37.320Z,5164.00
2018-09-05T11:32:37.417Z,4872.00
2018-09-05T11:33:37.336Z,4796.00
2018-09-05T11:34:37.333Z,4996.00
2018-09-05T11:35:37.384Z,5008.00
2018-09-05T11:36:37.342Z,4932.00
2018-09-05T11:37:37.344Z,4668.00
2018-09-05T11:38:37.348Z,4228.00
2018-09-05T11:39:37.357Z,3956.00
2018-09-05T11:40:37.354Z,3784.00
2018-09-05T11:41:37.357Z,3832.00
2018-09-05T11:42:37.361Z,3808.00
2018-09-05T11:43:37.366Z,4116.00
2018-09-05T11:44:37.374Z,3888.00
2018-09-05T11:45:37.375Z,4512.00
2018-09-05T11:46:37.375Z,5124.00
2018-09-05T11:47:37.382Z,5972.00
2018-09-05T11:48:37.384Z,6352.00
2018-09-05T11:49:37.433Z,6336.00
2018-09-05T11:50:37.396Z,6408.00
2018-09-05T11:51:37.399Z,5904.00
2018-09-05T11:52:37.398Z,5888.00
2018-09-05T11:53:37.565Z,6384.00
2018-09-05T11:54:37.409Z,6408.00
2018-09-05T11:55:37.411Z,6372.00
2018-09-05T11:56:37.417Z,6420.00
2018-09-05T11:57:37.418Z,6232.00
2018-09-05T11:58:37.427Z,5988.00
2018-09-05T11:59:37.543Z,5844.00
2018-09-05T12:00:37.429Z,5776.00
2018-09-05T12:01:37.429Z,5832.00
2018-09-05T12:02:37.434Z,5984.00
2018-09-05T12:03:37.439Z,6112.00
2018-09-05T12:04:37.445Z,6168.00
2018-09-05T12:05:37.450Z,6356.00
2018-09-05T12:06:37.511Z,6512.00
2018-09-05T12:07:37.472Z,6748.00
2018-09-05T12:08:37.461Z,6868.00
2018-09-05T12:09:37.462Z,7308.00
2018-09-05T12:10:37.465Z,7584.00
2018-09-05T12:11:37.483Z,7752.00
2018-09-05T12:12:37.474Z,7464.00
2018-09-05T12:13:37.496Z,7592.00
2018-09-05T12:14:37.489Z,7588.00
2018-09-05T12:15:37.495Z,7520.00
2018-09-05T12:16:37.489Z,7280.00
2018-09-05T12:17:37.665Z,6932.00
2018-09-05T12:18:37.524Z,6244.00
2018-09-05T12:19:37.500Z,5720.00
2018-09-05T12:20:37.509Z,5308.00
2018-09-05T12:21:37.505Z,5132.00
2018-09-05T12:22:37.509Z,5336.00
2018-09-05T12:23:37.518Z,5076.00
2018-09-05T12:24:37.518Z,5212.00
2018-09-05T12:25:37.523Z,5112.00
2018-09-05T12:26:37.529Z,5420.00
2018-09-05T12:27:37.530Z,5192.00
2018-09-05T12:28:37.532Z,4844.00
2018-09-05T12:29:37.543Z,4672.00